Time;durP1;ratioP1;P1;durP2;ratioP2;P2;SDS_P1;SDS_P2;PMS_P1;PMS_P2;Temp;Humidity;BMP_temperature;BMP_pressure;BME280_temperature;BME280_humidity;BME280_pressure;Samples;Min_cycle;Max_cycle;Signal;HPM_P1;HPM_P2
2021/10/31 00:00:54;;;;;;;9.55;8.75;;;10.20;99.90;;;11.18;100.00;97419.75;5227191;28;21057;-63
2021/10/31 00:03:27;;;;;;;9.50;8.68;;;10.20;99.90;;;11.21;100.00;97419.00;5219504;28;20237;-60
2021/10/31 00:06:02;;;;;;;10.27;9.27;;;10.20;99.90;;;11.19;100.00;97426.63;5220982;28;20597;-64
2021/10/31 00:08:35;;;;;;;9.15;8.40;;;10.20;99.90;;;11.20;100.00;97430.94;5225910;28;20283;-64
2021/10/31 00:11:08;;;;;;;10.93;9.82;;;10.20;99.90;;;11.20;100.00;97438.59;5225731;28;20616;-64
2021/10/31 00:13:41;;;;;;;9.90;9.05;;;10.20;99.90;;;11.16;100.00;97429.06;5224345;28;20292;-63
2021/10/31 00:16:15;;;;;;;9.30;8.60;;;10.10;99.90;;;11.19;100.00;97420.66;5222889;28;20204;-64
2021/10/31 00:18:48;;;;;;;8.63;7.90;;;10.20;99.90;;;11.23;100.00;97443.00;5224285;28;20233;-63
2021/10/31 00:21:25;;;;;;;9.13;8.35;;;10.20;99.90;;;11.26;100.00;97440.59;5226097;28;20201;-64
2021/10/31 00:23:58;;;;;;;8.85;8.05;;;10.20;99.90;;;11.28;100.00;97446.66;5225381;28;20291;-63
2021/10/31 00:26:31;;;;;;;9.05;8.23;;;10.20;99.90;;;11.26;100.00;97441.44;5225079;28;20239;-63
2021/10/31 00:29:04;;;;;;;9.25;8.45;;;10.30;99.90;;;11.25;100.00;97452.50;5226440;28;20204;-63
2021/10/31 00:31:37;;;;;;;9.80;9.00;;;10.30;99.90;;;11.27;100.00;97448.34;5221369;28;20213;-60
2021/10/31 00:34:10;;;;;;;9.52;8.73;;;10.30;99.90;;;11.28;100.00;97451.78;5221928;28;20284;-64
2021/10/31 00:36:45;;;;;;;9.48;8.57;;;10.30;99.90;;;11.31;100.00;97448.50;5224652;28;20284;-63
2021/10/31 00:39:18;;;;;;;9.00;8.30;;;10.30;99.90;;;11.27;100.00;97450.00;5225186;28;20222;-63
2021/10/31 00:41:51;;;;;;;8.70;8.00;;;10.30;99.90;;;11.24;100.00;97453.28;5222763;28;20319;-64
2021/10/31 00:44:25;;;;;;;7.20;6.60;;;10.20;99.90;;;11.21;100.00;97450.59;5226498;28;20716;-64
2021/10/31 00:46:58;;;;;;;8.80;8.02;;;10.20;99.90;;;11.12;100.00;97444.16;5225958;28;20211;-63
2021/10/31 00:49:31;;;;;;;8.65;7.95;;;10.20;99.90;;;11.09;100.00;97444.88;5225588;28;20579;-64
2021/10/31 00:52:07;;;;;;;8.35;7.75;;;10.20;99.90;;;11.08;100.00;97450.81;5224525;28;20233;-62
2021/10/31 00:54:41;;;;;;;9.90;9.02;;;10.10;99.90;;;11.10;100.00;97450.88;5226035;28;20612;-64
2021/10/31 00:57:15;;;;;;;9.90;9.10;;;10.10;99.90;;;11.03;100.00;97445.47;5224694;28;20202;-64
2021/10/31 00:59:48;;;;;;;9.85;9.15;;;10.10;99.90;;;11.05;100.00;97450.69;5224785;28;20326;-61
2021/10/31 01:02:21;;;;;;;9.40;8.70;;;10.10;99.90;;;11.06;100.00;97454.97;5224955;28;20316;-63
2021/10/31 01:05:01;;;;;;;9.80;8.93;;;10.10;99.90;;;11.09;100.00;97449.13;5225458;28;20653;-62
2021/10/31 01:08:00;;;;;;;8.77;8.10;;;10.10;99.90;;;11.12;100.00;97449.28;5218227;28;20239;-64
2021/10/31 01:10:54;;;;;;;8.75;8.05;;;10.20;99.90;;;11.11;100.00;97442.41;5223176;28;20205;-62
2021/10/31 01:13:42;;;;;;;8.20;7.60;;;10.20;99.90;;;11.09;100.00;97450.00;5217007;28;20214;-64
2021/10/31 01:16:42;;;;;;;6.90;6.32;;;10.20;99.90;;;11.14;100.00;97458.78;5224622;28;20209;-63
2021/10/31 01:19:40;;;;;;;6.00;5.60;;;10.20;99.90;;;11.13;100.00;97457.03;5221983;28;20220;-64
2021/10/31 01:22:28;;;;;;;6.43;5.93;;;10.20;99.90;;;11.13;100.00;97448.47;5221150;28;20229;-63
2021/10/31 01:25:28;;;;;;;6.30;5.90;;;10.20;99.90;;;11.13;100.00;97446.81;5227009;28;20212;-64
2021/10/31 01:28:12;;;;;;;6.45;5.90;;;10.20;99.90;;;11.23;100.00;97445.56;5221004;28;20233;-64
2021/10/31 01:30:56;;;;;;;6.22;5.75;;;10.20;99.90;;;11.19;100.00;97443.66;5219507;28;20718;-64
2021/10/31 01:33:45;;;;;;;6.07;5.57;;;10.20;99.90;;;11.13;100.00;97441.69;5223892;28;20221;-64
2021/10/31 01:36:30;;;;;;;5.70;5.30;;;10.20;99.90;;;11.11;100.00;97430.50;5224170;28;20737;-63
2021/10/31 01:39:12;;;;;;;6.88;6.38;;;10.20;99.90;;;11.06;100.00;97429.41;5225071;28;20319;-62
2021/10/31 01:41:55;;;;;;;6.80;6.30;;;10.20;99.90;;;11.03;100.00;97431.81;5223497;28;20307;-63
2021/10/31 01:44:39;;;;;;;6.20;5.80;;;10.10;99.90;;;10.97;100.00;97429.84;5224825;28;20189;-64
2021/10/31 01:47:28;;;;;;;7.75;7.15;;;10.00;99.90;;;10.97;100.00;97431.53;5222377;28;20189;-64
2021/10/31 01:50:11;;;;;;;8.65;7.82;;;10.00;99.90;;;10.89;100.00;97435.38;5224635;28;20630;-62
2021/10/31 01:52:56;;;;;;;8.23;7.53;;;10.00;99.90;;;10.87;100.00;97434.41;5219020;28;20231;-64
2021/10/31 01:55:36;;;;;;;8.27;7.53;;;10.00;99.90;;;10.88;100.00;97438.75;5224659;28;20291;-63
2021/10/31 01:58:12;;;;;;;8.35;7.75;;;9.90;99.90;;;10.84;100.00;97442.81;5220128;28;20205;-62
2021/10/31 02:00:50;;;;;;;8.27;7.57;;;10.00;99.90;;;10.79;100.00;97436.63;5235785;22;20215;-58
2021/10/31 02:03:24;;;;;;;8.02;7.43;;;9.90;99.90;;;10.76;100.00;97434.78;5185114;28;20259;-58
2021/10/31 02:05:59;;;;;;;7.88;7.28;;;9.90;99.90;;;10.73;100.00;97438.84;5185229;28;20272;-55
2021/10/31 02:08:35;;;;;;;8.05;7.35;;;9.80;99.90;;;10.63;100.00;97445.19;5183901;28;20202;-59
2021/10/31 02:11:11;;;;;;;7.80;7.20;;;9.70;99.90;;;10.59;100.00;97427.97;5177986;28;20221;-60
2021/10/31 02:13:47;;;;;;;8.07;7.40;;;9.70;99.90;;;10.53;100.00;97431.09;5160840;28;20195;-59
2021/10/31 02:16:21;;;;;;;7.70;7.10;;;9.70;99.90;;;10.48;100.00;97434.22;5168956;28;20191;-59
2021/10/31 02:19:02;;;;;;;7.75;7.15;;;9.60;99.90;;;10.46;100.00;97428.16;5167130;28;20602;-59
2021/10/31 02:21:37;;;;;;;7.53;6.85;;;9.50;99.90;;;10.40;100.00;97427.84;5165492;28;20862;-54
2021/10/31 02:24:12;;;;;;;7.60;7.00;;;9.50;99.90;;;10.41;100.00;97429.59;5170025;28;20209;-60
2021/10/31 02:26:45;;;;;;;7.60;7.05;;;9.50;99.90;;;10.37;100.00;97431.13;5169849;28;20209;-59
2021/10/31 02:29:19;;;;;;;7.75;7.10;;;9.40;99.90;;;10.37;100.00;97426.88;5167896;28;20290;-58
2021/10/31 02:31:52;;;;;;;7.65;7.15;;;9.40;99.90;;;10.35;99.81;97423.34;5163765;28;20736;-57
2021/10/31 02:34:25;;;;;;;7.65;7.07;;;9.40;99.90;;;10.32;99.98;97424.88;5162595;28;20553;-60
2021/10/31 02:36:58;;;;;;;7.30;6.70;;;9.40;99.90;;;10.33;100.00;97417.31;5163353;28;20294;-59
2021/10/31 02:39:33;;;;;;;6.65;6.15;;;9.40;99.90;;;10.27;100.00;97427.22;5164574;28;20318;-56
2021/10/31 02:42:07;;;;;;;7.50;6.90;;;9.30;99.90;;;10.23;99.88;97416.72;5161503;28;20218;-58
2021/10/31 02:44:40;;;;;;;6.97;6.47;;;9.30;99.90;;;10.19;99.52;97422.47;5167524;28;20192;-58
2021/10/31 02:47:19;;;;;;;6.60;6.10;;;9.20;99.90;;;10.16;100.00;97413.00;5162849;28;20568;-59
2021/10/31 02:49:53;;;;;;;6.25;5.78;;;9.20;99.90;;;10.08;99.55;97404.06;5164550;28;20282;-58
2021/10/31 02:52:55;;;;;;;6.32;5.93;;;9.20;99.90;;;10.04;99.67;97412.34;5163391;28;20223;-59
2021/10/31 02:55:38;;;;;;;6.30;5.80;;;9.10;99.90;;;9.99;99.91;97413.81;5156874;28;20195;-58
2021/10/31 02:58:20;;;;;;;6.55;6.05;;;9.10;99.90;;;9.98;100.00;97412.91;5163575;28;20196;-57
2021/10/31 03:00:57;;;;;;;6.40;5.90;;;9.00;99.90;;;9.90;100.00;97409.97;5173496;28;20623;-58
2021/10/31 03:03:33;;;;;;;6.53;6.10;;;8.90;99.90;;;9.87;99.92;97398.69;5163921;28;20234;-56
2021/10/31 03:06:06;;;;;;;6.18;5.75;;;8.90;99.90;;;9.83;99.81;97391.69;5169433;28;20226;-58
2021/10/31 03:08:40;;;;;;;6.57;6.07;;;8.90;99.90;;;9.79;100.00;97385.56;5169278;28;20627;-57
2021/10/31 03:11:15;;;;;;;6.72;6.22;;;8.90;99.90;;;9.77;99.97;97386.28;5165942;28;20718;-59
2021/10/31 03:13:48;;;;;;;6.45;5.88;;;8.90;99.90;;;9.78;99.89;97388.88;5166577;28;20209;-56
2021/10/31 03:16:21;;;;;;;7.03;6.53;;;8.80;99.90;;;9.74;99.54;97386.13;5173690;28;20194;-56
2021/10/31 03:18:54;;;;;;;8.68;7.97;;;8.80;99.90;;;9.74;100.00;97396.31;5161936;28;20203;-57
2021/10/31 03:21:28;;;;;;;7.35;6.82;;;8.90;99.90;;;9.69;100.00;97402.03;5167241;28;20231;-57
2021/10/31 03:24:01;;;;;;;8.25;7.63;;;8.80;99.90;;;9.71;100.00;97407.25;5163741;28;20202;-56
2021/10/31 03:26:35;;;;;;;8.80;8.07;;;8.90;99.90;;;9.76;100.00;97398.16;5165086;28;20198;-59
2021/10/31 03:29:09;;;;;;;8.75;7.95;;;8.90;99.90;;;9.73;100.00;97407.31;5165751;28;20205;-59
2021/10/31 03:31:42;;;;;;;8.63;7.80;;;8.90;99.90;;;9.73;100.00;97407.31;5170127;28;20221;-58
2021/10/31 03:34:15;;;;;;;8.07;7.40;;;8.90;99.90;;;9.73;100.00;97392.91;5165825;28;20211;-57
2021/10/31 03:36:49;;;;;;;8.57;7.88;;;9.00;99.90;;;9.84;100.00;97398.53;5165986;28;20203;-59
2021/10/31 03:39:22;;;;;;;9.13;8.32;;;9.00;99.90;;;9.78;100.00;97391.44;5165271;28;20231;-58
2021/10/31 03:41:57;;;;;;;8.55;7.90;;;9.00;99.90;;;9.76;100.00;97400.72;5165764;28;20310;-58
2021/10/31 03:44:35;;;;;;;7.90;7.30;;;9.00;99.90;;;9.79;100.00;97395.75;5165937;28;20213;-60
2021/10/31 03:47:10;;;;;;;8.18;7.47;;;8.90;99.90;;;9.80;100.00;97402.63;5160091;28;20195;-56
2021/10/31 03:49:43;;;;;;;7.15;6.57;;;8.80;99.90;;;9.72;100.00;97408.13;5165837;28;20205;-56
2021/10/31 03:52:16;;;;;;;7.55;6.95;;;8.70;99.90;;;9.64;99.70;97406.06;5165963;28;20227;-58
2021/10/31 03:54:49;;;;;;;7.60;7.00;;;8.70;99.90;;;9.59;100.00;97416.81;5163661;28;20213;-58
2021/10/31 03:57:23;;;;;;;7.35;6.75;;;8.70;99.90;;;9.54;100.00;97411.44;5163190;28;20227;-59
2021/10/31 03:59:56;;;;;;;7.40;6.80;;;8.60;99.90;;;9.50;100.00;97408.63;5165572;28;20234;-58
2021/10/31 04:02:29;;;;;;;8.60;7.35;;;8.60;99.90;;;9.40;100.00;97405.59;5167676;28;20317;-59
2021/10/31 04:05:03;;;;;;;7.18;6.57;;;8.50;99.90;;;9.36;100.00;97402.81;5174139;28;20207;-59
2021/10/31 04:07:36;;;;;;;7.28;6.78;;;8.50;99.90;;;9.36;99.80;97408.78;5168329;28;20230;-59
2021/10/31 04:10:10;;;;;;;7.68;7.03;;;8.40;99.90;;;9.31;99.15;97400.00;5168323;28;20195;-57
2021/10/31 04:12:49;;;;;;;7.50;6.90;;;8.40;99.90;;;9.21;99.81;97396.09;5164077;28;20228;-59
2021/10/31 04:15:23;;;;;;;7.88;7.28;;;8.30;99.90;;;9.13;99.79;97402.44;5164756;28;20195;-60
2021/10/31 04:17:56;;;;;;;7.18;6.63;;;8.20;99.90;;;9.09;99.35;97391.97;5173283;28;20234;-59
2021/10/31 04:20:29;;;;;;;7.82;7.22;;;8.20;99.90;;;9.06;100.00;97391.81;5168823;28;20237;-58
2021/10/31 04:23:04;;;;;;;7.82;7.20;;;8.20;99.90;;;9.05;100.00;97390.94;5177144;28;20314;-59
2021/10/31 04:25:37;;;;;;;8.45;7.78;;;8.20;99.90;;;9.05;100.00;97393.47;5167681;28;20262;-60
2021/10/31 04:28:12;;;;;;;8.02;7.43;;;8.20;99.90;;;9.05;100.00;97388.38;5164924;28;20287;-59
2021/10/31 04:30:48;;;;;;;7.20;6.70;;;8.20;99.90;;;9.07;100.00;97381.72;5166344;28;20195;-59
2021/10/31 04:33:21;;;;;;;7.07;6.57;;;8.20;99.90;;;9.01;100.00;97384.78;5158715;28;20195;-57
2021/10/31 04:35:55;;;;;;;7.47;6.97;;;8.20;99.90;;;8.94;100.00;97382.69;5163655;28;20200;-54
2021/10/31 04:38:30;;;;;;;7.03;6.53;;;8.10;99.90;;;8.82;100.00;97382.00;5168353;28;20659;-60
2021/10/31 04:41:05;;;;;;;7.45;6.88;;;8.00;99.90;;;8.89;99.73;97381.53;5167173;28;20222;-58
2021/10/31 04:43:39;;;;;;;7.20;6.70;;;8.00;99.90;;;8.89;99.55;97381.53;5168501;28;20199;-57
2021/10/31 04:46:12;;;;;;;6.95;6.45;;;8.00;99.90;;;8.77;99.84;97385.97;5163427;28;20689;-60
2021/10/31 04:48:45;;;;;;;6.50;5.90;;;7.90;99.90;;;8.68;99.81;97383.78;5168334;28;20218;-57
2021/10/31 04:51:18;;;;;;;6.50;6.00;;;7.80;99.90;;;8.64;99.94;97376.78;5168151;28;20222;-59
2021/10/31 04:53:52;;;;;;;7.40;6.80;;;7.80;99.90;;;8.65;100.00;97372.53;5167585;28;20195;-57
2021/10/31 04:56:25;;;;;;;8.05;7.32;;;7.80;99.90;;;8.67;100.00;97363.28;5166240;28;20195;-57
2021/10/31 04:58:59;;;;;;;8.50;7.80;;;7.90;99.90;;;8.74;100.00;97365.41;5168516;28;20201;-57
2021/10/31 05:01:33;;;;;;;9.17;8.37;;;7.90;99.90;;;8.74;100.00;97358.63;5161244;28;20240;-58
2021/10/31 05:04:06;;;;;;;8.90;8.10;;;7.90;99.90;;;8.77;100.00;97360.47;5169378;28;20203;-59
2021/10/31 05:06:39;;;;;;;8.70;8.00;;;8.00;99.90;;;8.77;100.00;97363.91;5164233;28;20217;-57
2021/10/31 05:09:12;;;;;;;9.03;8.13;;;8.00;99.90;;;8.82;100.00;97364.19;5164958;28;20739;-58
2021/10/31 05:11:45;;;;;;;7.73;7.13;;;8.10;99.90;;;8.82;100.00;97366.72;5164610;28;20214;-57
2021/10/31 05:14:20;;;;;;;8.40;7.80;;;8.00;99.90;;;8.86;100.00;97362.66;5162920;28;20728;-56
2021/10/31 05:16:53;;;;;;;8.30;7.60;;;8.10;99.90;;;8.88;100.00;97361.97;5171148;28;20252;-60
2021/10/31 05:19:26;;;;;;;9.70;8.90;;;8.10;99.90;;;8.96;100.00;97363.28;5165605;28;20212;-59
2021/10/31 05:21:59;;;;;;;9.57;8.67;;;8.20;99.90;;;8.96;100.00;97363.28;5166205;28;20229;-60
2021/10/31 05:24:32;;;;;;;8.40;7.70;;;8.30;99.90;;;9.01;100.00;97363.50;5166887;28;20203;-62
2021/10/31 05:27:06;;;;;;;9.50;8.70;;;8.30;99.90;;;9.05;100.00;97364.56;5169061;28;20196;-61
2021/10/31 05:29:40;;;;;;;9.77;8.87;;;8.30;99.90;;;8.99;100.00;97372.75;5165242;28;20195;-59
2021/10/31 05:32:13;;;;;;;8.60;7.90;;;8.30;99.90;;;9.02;100.00;97363.59;5169623;28;20215;-61
2021/10/31 05:34:46;;;;;;;9.40;8.47;;;8.30;99.90;;;9.13;100.00;97365.84;5166295;28;20290;-61
2021/10/31 05:37:19;;;;;;;9.37;8.67;;;8.30;99.90;;;9.08;100.00;97365.59;5165293;28;20235;-59
2021/10/31 05:39:52;;;;;;;8.53;7.83;;;8.30;99.90;;;8.97;100.00;97357.38;5160456;28;20207;-61
2021/10/31 05:42:25;;;;;;;9.03;8.23;;;8.20;99.90;;;8.95;100.00;97364.03;5171407;28;20240;-61
2021/10/31 05:45:00;;;;;;;8.40;7.70;;;8.20;99.90;;;8.93;100.00;97363.09;5173429;28;20203;-60
2021/10/31 05:47:33;;;;;;;8.73;8.03;;;8.20;99.90;;;8.95;100.00;97366.59;5164626;28;20297;-59
2021/10/31 05:50:09;;;;;;;8.63;7.93;;;8.20;99.90;;;8.92;100.00;97358.78;5165819;28;20205;-61
2021/10/31 05:52:43;;;;;;;8.20;7.50;;;8.20;99.90;;;8.85;100.00;97355.81;5157028;28;20388;-61
2021/10/31 05:55:18;;;;;;;7.97;7.27;;;8.10;99.90;;;8.86;100.00;97363.53;5167404;28;20682;-60
2021/10/31 05:57:51;;;;;;;7.77;7.13;;;8.10;99.90;;;8.86;100.00;97358.44;5171759;28;20198;-58
2021/10/31 06:00:25;;;;;;;8.47;7.77;;;8.10;99.90;;;8.84;100.00;97348.94;5163901;28;20900;-61
2021/10/31 06:02:58;;;;;;;9.07;8.37;;;8.10;99.90;;;8.84;100.00;97362.56;5162861;28;20648;-61
2021/10/31 06:05:32;;;;;;;8.97;8.17;;;8.10;99.90;;;8.82;100.00;97351.44;5169848;28;20469;-61
2021/10/31 06:08:12;;;;;;;8.93;8.23;;;8.10;99.90;;;8.90;100.00;97351.84;5168164;28;20220;-59
2021/10/31 06:10:47;;;;;;;8.10;7.40;;;8.10;99.90;;;8.86;100.00;97349.91;5155999;28;20627;-59
2021/10/31 06:13:39;;;;;;;9.40;8.10;;;8.00;99.90;;;8.80;100.00;97358.09;5164468;28;20685;-60
2021/10/31 06:16:14;;;;;;;7.97;7.27;;;8.00;99.90;;;8.80;100.00;97358.09;5167490;28;20202;-61
2021/10/31 06:18:47;;;;;;;9.40;8.70;;;8.00;99.90;;;8.78;100.00;97354.59;5169428;28;20571;-60
2021/10/31 06:21:20;;;;;;;8.57;7.87;;;8.00;99.90;;;8.78;100.00;97347.84;5159032;28;20245;-61
2021/10/31 06:23:53;;;;;;;8.93;8.13;;;8.00;99.90;;;8.84;100.00;97349.81;5166657;28;20207;-61
2021/10/31 06:26:26;;;;;;;8.57;7.87;;;8.00;99.90;;;8.86;100.00;97350.78;5160810;28;20200;-61
2021/10/31 06:28:59;;;;;;;9.80;8.90;;;8.10;99.90;;;8.84;100.00;97349.81;5161524;28;20214;-57
2021/10/31 06:31:33;;;;;;;9.00;8.30;;;8.10;99.90;;;8.85;100.00;97345.63;5161686;28;20306;-60
2021/10/31 06:34:06;;;;;;;9.10;8.40;;;8.10;99.90;;;8.91;100.00;97341.75;5167957;28;20195;-58
2021/10/31 06:36:39;;;;;;;8.87;8.17;;;8.10;99.90;;;8.95;100.00;97343.66;5163860;28;20585;-60
2021/10/31 06:39:13;;;;;;;8.90;8.20;;;8.20;99.90;;;8.95;100.00;97341.09;5166393;28;20202;-58
2021/10/31 06:41:46;;;;;;;8.90;7.97;;;8.20;99.90;;;9.08;100.00;97339.25;5172950;28;20219;-61
2021/10/31 06:44:19;;;;;;;9.07;8.27;;;8.30;99.90;;;9.18;100.00;97328.72;5179582;28;20205;-60
2021/10/31 06:46:53;;;;;;;9.10;8.30;;;8.50;99.90;;;9.36;100.00;97332.28;5162982;28;20664;-59
2021/10/31 06:49:26;;;;;;;9.13;8.23;;;8.60;99.90;;;9.53;99.85;97333.16;5164709;28;20209;-60
2021/10/31 06:52:00;;;;;;;8.43;7.73;;;8.80;99.90;;;9.76;99.67;97343.66;5167627;28;20536;-60
2021/10/31 06:54:33;;;;;;;8.90;8.10;;;9.00;99.90;;;9.97;99.75;97349.00;5179817;28;20229;-61
2021/10/31 06:57:06;;;;;;;10.63;9.82;;;9.20;99.90;;;10.14;96.51;97338.84;5170446;28;20286;-59
2021/10/31 06:59:39;;;;;;;9.00;8.30;;;9.30;99.90;;;10.31;96.21;97342.28;5166571;28;20203;-61
2021/10/31 07:02:14;;;;;;;7.28;6.78;;;9.40;99.90;;;10.37;96.04;97327.25;5169086;28;20234;-59
2021/10/31 07:04:48;;;;;;;7.53;6.93;;;9.50;99.90;;;10.33;93.71;97324.44;5173802;28;20205;-60
2021/10/31 07:07:21;;;;;;;7.00;6.50;;;9.40;99.90;;;10.35;93.33;97323.72;5163719;28;20282;-61
2021/10/31 07:09:54;;;;;;;7.32;6.72;;;9.60;99.90;;;10.33;93.68;97320.25;5166109;28;20217;-59
2021/10/31 07:12:27;;;;;;;7.07;6.53;;;9.50;99.90;;;10.34;93.24;97322.00;5171096;28;20223;-59
2021/10/31 07:15:00;;;;;;;7.57;6.97;;;9.50;99.90;;;10.37;93.00;97334.91;5169604;28;20195;-56
2021/10/31 07:17:34;;;;;;;6.28;5.85;;;9.60;99.90;;;10.48;92.35;97339.69;5179740;28;20213;-59
2021/10/31 07:20:10;;;;;;;7.50;6.90;;;9.60;99.90;;;10.54;93.20;97332.31;5172682;28;20681;-59
2021/10/31 07:22:43;;;;;;;7.95;7.30;;;9.70;99.90;;;10.70;92.87;97341.56;5167598;28;20227;-58
2021/10/31 07:25:20;;;;;;;7.32;6.75;;;9.90;99.90;;;10.93;91.77;97335.00;5172378;28;20205;-58
2021/10/31 07:27:53;;;;;;;8.05;7.45;;;10.00;99.90;;;11.01;90.81;97329.44;5173177;28;20210;-59
2021/10/31 07:30:27;;;;;;;8.00;7.40;;;10.20;99.90;;;11.15;91.36;97334.31;5165005;28;20221;-59
2021/10/31 07:33:03;;;;;;;7.40;6.80;;;10.30;99.90;;;11.28;91.16;97327.28;5167685;28;20274;-56
2021/10/31 07:35:36;;;;;;;6.93;6.43;;;10.50;99.90;;;11.49;90.76;97323.94;5164272;28;20739;-58
2021/10/31 07:38:09;;;;;;;7.18;6.68;;;10.70;99.90;;;11.69;90.47;97328.25;5167727;28;20565;-61
2021/10/31 07:40:44;;;;;;;7.85;7.25;;;11.00;99.90;;;11.79;89.31;97333.75;5168394;28;20234;-61
2021/10/31 07:43:17;;;;;;;8.50;7.80;;;11.00;99.90;;;12.02;86.99;97333.13;5169643;28;20226;-60
2021/10/31 07:45:50;;;;;;;8.88;8.07;;;11.10;99.90;;;11.98;86.04;97326.09;5164747;28;20199;-61
2021/10/31 07:48:24;;;;;;;7.38;6.82;;;11.10;99.90;;;12.12;86.56;97330.13;5161575;28;20496;-59
2021/10/31 07:50:57;;;;;;;6.88;6.38;;;11.40;99.90;;;12.31;86.34;97316.41;5166311;28;20700;-59
2021/10/31 07:53:31;;;;;;;6.70;6.20;;;11.60;99.90;;;12.30;85.72;97316.34;5163304;28;20250;-61
2021/10/31 07:56:04;;;;;;;7.65;6.97;;;11.70;99.90;;;12.44;83.58;97317.78;5170342;28;20285;-59
2021/10/31 07:58:37;;;;;;;7.32;6.82;;;11.80;99.90;;;12.49;85.67;97306.03;5172299;28;20298;-58
2021/10/31 08:01:11;;;;;;;7.25;6.75;;;11.80;99.90;;;12.68;85.85;97311.91;5164033;28;20235;-61
2021/10/31 08:03:46;;;;;;;7.45;6.85;;;12.00;99.90;;;12.88;83.87;97304.97;5174760;28;20209;-61
2021/10/31 08:06:20;;;;;;;8.23;7.55;;;12.10;99.90;;;12.96;83.54;97306.16;5177140;28;20658;-59
2021/10/31 08:08:53;;;;;;;7.72;7.18;;;12.20;99.90;;;12.93;83.53;97306.91;5166013;28;20306;-63
2021/10/31 08:11:26;;;;;;;8.43;7.63;;;12.30;99.90;;;13.11;83.86;97299.06;5166910;28;20223;-63
2021/10/31 08:13:59;;;;;;;8.00;7.30;;;12.50;99.90;;;13.23;81.31;97290.94;5163583;28;21097;-62
2021/10/31 08:16:36;;;;;;;7.60;7.00;;;12.50;99.90;;;13.29;81.08;97294.63;5163111;28;20235;-62
2021/10/31 08:19:10;;;;;;;8.00;7.45;;;12.40;99.90;;;13.27;80.47;97292.84;5160848;28;20234;-63
2021/10/31 08:21:43;;;;;;;49.67;45.88;;;12.30;99.90;;;13.06;82.13;97296.31;5165669;28;20221;-63
2021/10/31 08:24:17;;;;;;;10.32;9.57;;;12.30;99.90;;;12.88;83.62;97298.19;5164924;28;20683;-63
2021/10/31 08:26:50;;;;;;;10.30;9.45;;;12.20;99.90;;;12.99;83.99;97299.47;5167396;28;20299;-62
2021/10/31 08:29:24;;;;;;;8.95;8.40;;;12.30;99.90;;;13.02;84.85;97301.25;5164649;28;20205;-64
2021/10/31 08:31:57;;;;;;;15.65;14.52;;;12.30;99.90;;;13.14;84.25;97290.63;5163629;28;20236;-62
2021/10/31 08:34:31;;;;;;;16.25;15.15;;;12.50;99.90;;;13.36;85.35;97290.59;5166201;28;20202;-63
2021/10/31 08:37:05;;;;;;;9.52;8.82;;;12.70;99.90;;;13.48;84.26;97291.06;5163200;28;20542;-62
2021/10/31 08:39:38;;;;;;;9.02;8.43;;;12.80;99.90;;;13.62;83.73;97281.31;5167053;28;20207;-63
2021/10/31 08:42:11;;;;;;;7.72;7.07;;;13.00;99.90;;;13.73;83.56;97281.66;5161931;28;20233;-63
2021/10/31 08:44:44;;;;;;;6.93;6.32;;;13.20;99.90;;;13.80;84.72;97283.63;5163484;28;20218;-63
2021/10/31 08:47:17;;;;;;;7.55;6.95;;;13.10;99.90;;;13.78;83.65;97280.13;5163281;28;20203;-63
2021/10/31 08:49:52;;;;;;;7.38;6.78;;;13.10;99.90;;;13.77;83.66;97275.81;5161054;28;20202;-64
2021/10/31 08:52:25;;;;;;;7.57;7.07;;;13.00;99.90;;;13.85;83.50;97276.06;5164262;28;20214;-64
2021/10/31 08:54:58;;;;;;;7.32;6.82;;;13.10;99.90;;;14.01;83.70;97267.22;5161970;28;20311;-64
2021/10/31 08:57:31;;;;;;;8.40;7.70;;;13.20;99.90;;;14.16;84.72;97258.34;5159848;28;20207;-64
2021/10/31 09:00:06;;;;;;;7.85;7.28;;;13.50;99.90;;;14.26;83.51;97256.94;5159811;28;20287;-64
2021/10/31 09:02:40;;;;;;;8.10;7.40;;;13.60;99.90;;;14.51;81.08;97255.16;5162059;28;20236;-64
2021/10/31 09:05:15;;;;;;;7.80;7.20;;;13.80;99.90;;;14.41;82.58;97244.56;5162515;28;20203;-64
2021/10/31 09:07:48;;;;;;;7.93;7.25;;;13.80;99.90;;;14.61;83.22;97239.22;5164799;28;20206;-64
2021/10/31 09:10:21;;;;;;;6.93;6.43;;;13.90;99.90;;;14.89;82.96;97237.50;5170830;28;20410;-64
2021/10/31 09:12:54;;;;;;;8.05;7.38;;;14.10;99.90;;;15.05;82.36;97231.94;5166135;28;20410;-64
2021/10/31 09:15:28;;;;;;;7.25;6.75;;;14.30;99.90;;;15.37;80.71;97229.44;5163303;28;20290;-64
2021/10/31 09:18:02;;;;;;;7.28;6.60;;;14.80;99.90;;;15.70;78.47;97227.81;5166579;28;20203;-64
2021/10/31 09:20:37;;;;;;;6.63;6.07;;;15.20;99.90;;;15.93;78.43;97217.22;5163250;28;20209;-64
2021/10/31 09:23:11;;;;;;;6.90;6.40;;;15.40;99.90;;;16.07;73.98;97221.03;5161813;28;20233;-64
2021/10/31 09:25:45;;;;;;;7.03;6.53;;;15.60;99.90;;;16.17;75.50;97212.69;5173612;28;20202;-64
2021/10/31 09:28:18;;;;;;;6.60;6.10;;;15.70;99.90;;;16.36;74.18;97207.97;5174346;28;20211;-64
2021/10/31 09:30:51;;;;;;;6.43;5.90;;;15.90;99.90;;;16.52;73.10;97204.94;5172954;28;20329;-64
2021/10/31 09:33:25;;;;;;;6.05;5.55;;;16.10;99.90;;;16.71;72.29;97200.16;5180857;28;20535;-64
2021/10/31 09:36:04;;;;;;;6.13;5.60;;;16.30;99.90;;;16.83;70.30;97197.91;5166258;28;20253;-64
2021/10/31 09:38:38;;;;;;;5.15;4.85;;;16.50;99.90;;;16.95;66.64;97193.00;5164652;28;20306;-64
2021/10/31 09:41:13;;;;;;;5.68;5.18;;;16.40;99.90;;;16.92;66.19;97187.78;5164980;28;20227;-64
2021/10/31 09:43:49;;;;;;;5.45;5.05;;;16.40;99.90;;;17.06;67.26;97186.34;5162442;28;20249;-63
2021/10/31 09:46:25;;;;;;;4.63;4.32;;;16.70;99.90;;;17.21;67.72;97185.78;5167886;28;20725;-63
2021/10/31 09:48:58;;;;;;;4.70;4.30;;;16.90;99.90;;;17.42;65.79;97177.59;5166533;28;20210;-63
2021/10/31 09:51:33;;;;;;;5.30;4.90;;;17.10;99.90;;;17.60;63.72;97173.59;5168238;28;20230;-63
2021/10/31 09:54:06;;;;;;;4.72;4.43;;;17.20;99.90;;;17.73;62.37;97170.41;5162282;28;20190;-64
2021/10/31 09:56:40;;;;;;;4.90;4.50;;;17.30;99.90;;;17.82;60.33;97160.25;5162393;28;20200;-63
2021/10/31 09:59:17;;;;;;;4.50;4.20;;;17.30;99.90;;;17.74;61.16;97166.97;5169427;28;20205;-64
2021/10/31 10:01:58;;;;;;;4.95;4.55;;;17.40;99.90;;;17.85;60.81;97160.31;5164320;28;20223;-63
2021/10/31 10:04:35;;;;;;;4.90;4.50;;;17.50;99.90;;;17.98;60.91;97151.91;5171195;28;20690;-64
2021/10/31 10:07:10;;;;;;;4.60;4.30;;;17.60;99.90;;;18.12;60.83;97148.69;5159391;28;20298;-64
2021/10/31 10:09:52;;;;;;;4.25;3.92;;;17.70;99.90;;;18.23;59.95;97147.16;5171130;28;20224;-63
2021/10/31 10:12:29;;;;;;;4.00;3.70;;;17.80;99.90;;;18.29;60.43;97142.06;5166023;28;20223;-63
2021/10/31 10:15:06;;;;;;;4.15;3.75;;;17.90;99.90;;;18.41;57.62;97134.47;5170400;28;20199;-64
2021/10/31 10:17:48;;;;;;;4.28;3.92;;;18.00;99.90;;;18.51;57.81;97130.28;5168114;28;20301;-62
2021/10/31 10:20:22;;;;;;;3.65;3.33;;;18.10;99.90;;;18.63;56.74;97117.53;5159601;28;20200;-64
2021/10/31 10:23:10;;;;;;;3.42;3.22;;;18.20;99.90;;;18.59;56.23;97120.03;5166632;28;20306;-64
2021/10/31 10:25:44;;;;;;;3.70;3.40;;;18.20;99.90;;;18.73;55.36;97123.69;5165769;28;20196;-65
2021/10/31 10:28:25;;;;;;;3.67;3.47;;;18.30;99.90;;;19.00;54.55;97120.63;5168526;28;20573;-63
2021/10/31 10:31:21;;;;;;;4.10;3.80;;;18.40;99.90;;;18.98;53.95;97108.50;5163708;28;20223;-64
2021/10/31 10:33:55;;;;;;;3.53;3.22;;;18.50;99.90;;;19.07;55.37;97103.41;5163748;28;20212;-64
2021/10/31 10:36:28;;;;;;;3.42;3.22;;;18.60;99.90;;;18.84;54.33;97093.66;5164466;28;20205;-65
2021/10/31 10:39:07;;;;;;;3.30;3.10;;;18.50;99.90;;;18.87;55.81;97091.09;5164329;28;20593;-63
2021/10/31 10:41:47;;;;;;;3.25;3.05;;;18.50;99.90;;;18.90;54.12;97100.63;5161462;28;20284;-63
2021/10/31 10:44:23;;;;;;;3.40;3.20;;;18.50;99.70;;;19.00;53.94;97097.31;5163083;28;20690;-65
2021/10/31 10:47:02;;;;;;;3.72;3.42;;;18.60;99.70;;;19.10;52.99;97087.91;5162945;28;20223;-65
2021/10/31 10:49:39;;;;;;;3.10;2.90;;;18.60;99.10;;;19.10;53.00;97082.72;5166507;28;20265;-65
2021/10/31 10:52:23;;;;;;;3.03;2.80;;;18.70;99.10;;;19.16;53.29;97082.78;5173907;28;20222;-64
2021/10/31 10:55:07;;;;;;;3.20;3.00;;;18.70;99.30;;;19.43;50.91;97081.31;5165595;28;20630;-64